^^
Station Historical Data
Daily Summary for April 16, 2018 Units:  Metric    English   Both
« Previous Day
Next Day »
Daily Weekly Monthly Yearly Custom
  High: Low: Average:
Temperature: -17.8 °C 0.7 °C 3.3 °C
Dew Point: -17.8 °C -5.1 °C -1.2 °C
Humidity: Humidity% 59% 73%
Wind Speed: 0km/h 0km/h 5.6km/h
Wind Gust: 0km/h - -
Wind- - SW
Pressure: 0 hPa 1018.5 hPa -
Precipitation: 0.25 mm    
Historical Graphs
 
 
Tabular Data for April 16, 2018
Time Temperature Dew Point Pressure Wind Wind Speed Wind Gust Humidity Rainfall Rate (Hourly)
-17.8 °C -17.8 °C 0 hPa Calm     Humidity% 0 mm
00:00 5.9 °C 3.7 °C 1018.5 hPa WNW 4.7 km/h 4.8 km/h 86% 0 mm
00:10 5.7 °C 3.7 °C 1018.5 hPa ENE 13 km/h 13 km/h 87% 0 mm
00:15 5.7 °C 3.7 °C 1018.8 hPa WNW 1.4 km/h 4.8 km/h 87% 0 mm
00:20 5.6 °C 3.4 °C 1018.8 hPa West 4.7 km/h 11.3 km/h 86% 0 mm
00:25 5.5 °C 3.5 °C 1019.2 hPa WNW 3.2 km/h 4.8 km/h 87% 0 mm
00:30 5.4 °C 3.4 °C 1019.2 hPa West 3.2 km/h 3.2 km/h 87% 0 mm
00:35 5.4 °C 3.2 °C 1019.2 hPa West 3.2 km/h 8 km/h 86% 0 mm
00:45 5.2 °C 3.1 °C 1019.2 hPa ESE 3.2 km/h 3.2 km/h 86% 0 mm
00:50 5.1 °C 3 °C 1019.2 hPa WNW 3.2 km/h 8 km/h 86% 0 mm
00:55 5.1 °C 3 °C 1019.5 hPa West 1.4 km/h 3.2 km/h 86% 0 mm
01:00 5.1 °C 3 °C 1019.5 hPa ENE 1.4 km/h 9.7 km/h 86% 0 mm
01:05 5 °C 2.9 °C 1019.5 hPa SW 3.2 km/h 4.8 km/h 86% 0 mm
01:15 4.9 °C 2.6 °C 1019.5 hPa WNW 4.7 km/h 16.1 km/h 85% 0 mm
01:30 4.9 °C 2.4 °C 1019.9 hPa West 1.4 km/h 9.7 km/h 84% 0 mm
01:35 4.8 °C 2.3 °C 1019.9 hPa NE 4.7 km/h 9.7 km/h 84% 0 mm
01:45 4.7 °C 2.2 °C 1019.9 hPa WNW 7.9 km/h 9.7 km/h 84% 0 mm
02:01 4.7 °C 1.9 °C 1019.9 hPa NW 6.4 km/h 12.9 km/h 82% 0 mm
02:16 4.6 °C 2 °C 1020.2 hPa WSW 9.7 km/h 11.3 km/h 83% 0 mm
02:21 4.5 °C 1.9 °C 1020.2 hPa West 6.4 km/h 9.7 km/h 83% 0 mm
02:36 4.3 °C 1.8 °C 1020.2 hPa ESE 4.7 km/h 4.8 km/h 84% 0 mm
02:41 4.3 °C 2 °C 1020.2 hPa SE 7.9 km/h 8 km/h 85% 0 mm
02:46 4.3 °C 1.8 °C 1020.2 hPa WNW 3.2 km/h 8 km/h 84% 0 mm
02:56 4.1 °C 1.8 °C 1020.5 hPa West 3.2 km/h 4.8 km/h 85% 0 mm
03:01 4 °C 1.7 °C 1020.2 hPa SW 1.4 km/h 4.8 km/h 85% 0 mm
03:06 3.9 °C 1.6 °C 1020.5 hPa Calm   3.2 km/h 85% 0 mm
03:11 3.9 °C 1.8 °C 1020.5 hPa Calm   4.8 km/h 86% 0 mm
03:16 3.8 °C 1.3 °C 1020.5 hPa SW 4.7 km/h 14.5 km/h 84% 0 mm
03:26 3.7 °C 1.6 °C 1020.5 hPa Calm   8 km/h 86% 0 mm
03:36 3.6 °C 1.5 °C 1020.5 hPa ESE 3.2 km/h 3.2 km/h 86% 0 mm
03:41 3.5 °C 1.5 °C 1020.5 hPa NE 4.7 km/h 9.7 km/h 87% 0 mm
03:46 3.4 °C 1.3 °C 1020.9 hPa SE 1.4 km/h 4.8 km/h 86% 0 mm
03:51 3.4 °C 1.4 °C 1020.9 hPa Calm   4.8 km/h 87% 0 mm
03:56 3.4 °C 1.4 °C 1020.9 hPa East 1.4 km/h 3.2 km/h 87% 0 mm
04:01 3.4 °C 1.6 °C 1020.9 hPa ENE 3.2 km/h 3.2 km/h 88% 0 mm
04:12 3.3 °C 1.5 °C 1020.9 hPa East 1.4 km/h 1.6 km/h 88% 0 mm
04:17 3.3 °C 1.3 °C 1020.9 hPa West 1.4 km/h 4.8 km/h 87% 0 mm
04:22 3.3 °C 1.5 °C 1020.9 hPa WSW 1.4 km/h 3.2 km/h 88% 0 mm
04:47 3.2 °C 1.4 °C 1021.2 hPa Calm   1.6 km/h 88% 0 mm
05:12 2.9 °C 0.8 °C 1021.2 hPa SW 1.4 km/h 9.7 km/h 86% 0 mm
05:17 2.9 °C 0.8 °C 1021.2 hPa Calm   6.4 km/h 86% 0 mm
05:42 2.7 °C 1.1 °C 1021.2 hPa Calm   4.8 km/h 89% 0 mm
06:02 2.7 °C 0.8 °C 1021.6 hPa Calm   9.7 km/h 87% 0 mm
06:07 2.7 °C 0.8 °C 1021.9 hPa ENE 6.4 km/h 6.4 km/h 87% 0 mm
06:12 2.7 °C 0.6 °C 1021.9 hPa West 1.4 km/h 6.4 km/h 86% 0 mm
06:17 2.7 °C 0.8 °C 1021.9 hPa Calm   4.8 km/h 87% 0 mm
06:22 2.7 °C 0.8 °C 1021.9 hPa Calm   1.6 km/h 87% 0 mm
06:27 2.7 °C 0.9 °C 1021.9 hPa WSW 6.4 km/h 9.7 km/h 88% 0 mm
06:37 2.8 °C 0.9 °C 1021.9 hPa West 1.4 km/h 1.6 km/h 87% 0 mm
06:43 2.7 °C 0.8 °C 1021.9 hPa WNW 3.2 km/h 3.2 km/h 87% 0 mm
06:48 2.8 °C 0.7 °C 1021.9 hPa West 1.4 km/h 4.8 km/h 86% 0 mm
06:58 2.7 °C 0.8 °C 1021.9 hPa Calm   4.8 km/h 87% 0 mm
07:18 2.7 °C 0.6 °C 1022.6 hPa Calm   6.4 km/h 86% 0 mm
07:23 2.7 °C 0.3 °C 1022.6 hPa NW 6.4 km/h 12.9 km/h 84% 0 mm
07:28 2.7 °C 0.3 °C 1022.6 hPa WNW 4.7 km/h 14.5 km/h 84% 0 mm
07:33 2.7 °C 0.4 °C 1022.6 hPa SW 6.4 km/h 9.7 km/h 85% 0 mm
07:38 2.7 °C 0.3 °C 1022.9 hPa WNW 9.7 km/h 14.5 km/h 84% 0 mm
07:43 2.7 °C 0.3 °C 1022.9 hPa WSW 3.2 km/h 16.1 km/h 84% 0 mm
07:48 2.7 °C 0.1 °C 1022.9 hPa Calm   12.9 km/h 83% 0 mm
07:58 2.6 °C 0.2 °C 1023.2 hPa WNW 3.2 km/h 14.5 km/h 84% 0 mm
08:23 2.6 °C 0 °C 1023.9 hPa ESE 1.4 km/h 9.7 km/h 83% 0 mm
08:28 2.7 °C -0.2 °C 1023.9 hPa WNW 4.7 km/h 19.3 km/h 81% 0 mm
08:34 2.7 °C -0.2 °C 1023.9 hPa East 3.2 km/h 16.1 km/h 81% 0 mm
08:39 2.7 °C -0.1 °C 1023.9 hPa NE 6.4 km/h 17.7 km/h 82% 0 mm
08:44 2.8 °C -0.1 °C 1023.9 hPa NE 4.7 km/h 12.9 km/h 81% 0 mm
08:49 2.8 °C -0.1 °C 1023.9 hPa Calm   3.2 km/h 81% 0 mm
08:54 2.8 °C -0.3 °C 1023.9 hPa WNW 4.7 km/h 6.4 km/h 80% 0 mm
08:59 2.9 °C -0.2 °C 1023.9 hPa WNW 4.7 km/h 9.7 km/h 80% 0 mm
09:09 3.1 °C -0.4 °C 1023.9 hPa West 6.4 km/h 14.5 km/h 78% 0 mm
09:14 3 °C -0.5 °C 1024.3 hPa SE 3.2 km/h 19.3 km/h 78% 0 mm
09:39 3.4 °C -0.2 °C 1024.6 hPa West 13 km/h 19.3 km/h 77% 0 mm
09:59 3.4 °C -0.4 °C 1024.6 hPa North 6.4 km/h 12.9 km/h 76% 0.25 mm
10:14 3.8 °C -0.6 °C 1024.6 hPa West 13 km/h 17.7 km/h 73% 0.25 mm
10:19 3.9 °C -0.7 °C 1024.6 hPa NW 4.7 km/h 22.5 km/h 72% 0.25 mm
10:24 4.1 °C -0.3 °C 1024.6 hPa WSW 1.4 km/h 17.7 km/h 73% 0.25 mm
10:29 4.2 °C -0.2 °C 1024.6 hPa SW 4.7 km/h 14.5 km/h 73% 0.25 mm
10:34 4.2 °C -0.2 °C 1024.9 hPa West 3.2 km/h 16.1 km/h 73% 0.25 mm
10:44 4.1 °C -0.1 °C 1024.9 hPa WNW 14.3 km/h 16.1 km/h 74% 0.25 mm
10:50 4.2 °C -0.2 °C 1025.3 hPa West 6.4 km/h 25.7 km/h 73% 0 mm
10:55 4.1 °C -0.3 °C 1025.6 hPa WNW 19.5 km/h 25.7 km/h 73% 0 mm
11:00 4.1 °C 0.3 °C 1025.6 hPa SW 17.7 km/h 17.7 km/h 76% 0 mm
11:05 4.3 °C -0.5 °C 1025.6 hPa SW 11.1 km/h 24.1 km/h 71% 0 mm
11:10 4.5 °C -0.3 °C 1025.6 hPa NE 7.9 km/h 24.1 km/h 71% 0 mm
11:15 4.7 °C -0.7 °C 1025.6 hPa WNW 4.7 km/h 27.4 km/h 68% 0 mm
11:55 5.7 °C -0.8 °C 1024.9 hPa WSW 14.3 km/h 22.5 km/h 63% 0 mm
12:00 5.4 °C -0.9 °C 1024.9 hPa WNW 7.9 km/h 19.3 km/h 64% 0 mm
12:05 5.4 °C -0.7 °C 1024.9 hPa Calm   20.9 km/h 65% 0 mm
12:10 5.7 °C 0.1 °C 1024.9 hPa NW 9.7 km/h 17.7 km/h 67% 0 mm
12:20 5.5 °C -0.8 °C 1025.3 hPa WNW 14.3 km/h 20.9 km/h 64% 0 mm
12:30 5.7 °C -0.4 °C 1025.6 hPa WNW 13 km/h 17.7 km/h 65% 0 mm
12:40 5.8 °C -0.5 °C 1025.3 hPa WNW 14.3 km/h 19.3 km/h 64% 0 mm
12:45 5.9 °C -0.4 °C 1025.3 hPa SSW 6.4 km/h 19.3 km/h 64% 0 mm
12:50 5.9 °C -0.4 °C 1025.3 hPa WNW 4.7 km/h 22.5 km/h 64% 0 mm
13:16 6 °C -1 °C 1025.6 hPa WNW 16.3 km/h 22.5 km/h 61% 0 mm
13:21 5.7 °C -0.8 °C 1025.6 hPa West 9.7 km/h 14.5 km/h 63% 0 mm
13:31 5.8 °C -0.7 °C 1025.6 hPa WNW 4.7 km/h 17.7 km/h 63% 0 mm
13:36 6 °C -1 °C 1025.6 hPa SSW 1.4 km/h 19.3 km/h 61% 0 mm
13:41 6.2 °C -1 °C 1025.6 hPa WNW 16.3 km/h 24.1 km/h 60% 0 mm
13:51 6.2 °C -1.2 °C 1025.3 hPa WNW 6.4 km/h 14.5 km/h 59% 0 mm
13:56 6.3 °C -0.7 °C 1025.6 hPa WNW 13 km/h 24.1 km/h 61% 0 mm
14:06 6.4 °C -0.6 °C 1025.6 hPa West 6.4 km/h 24.1 km/h 61% 0 mm
14:11 6.2 °C -0.8 °C 1025.3 hPa WNW 9.7 km/h 20.9 km/h 61% 0 mm
14:21 6.2 °C -1 °C 1025.3 hPa SSW 9.7 km/h 22.5 km/h 60% 0 mm
14:26 6.6 °C -0.6 °C 1025.6 hPa WNW 11.1 km/h 27.4 km/h 60% 0 mm
14:36 6.8 °C -0.4 °C 1025.3 hPa West 3.2 km/h 17.7 km/h 60% 0 mm
14:41 6.3 °C -0.9 °C 1025.3 hPa West 14.3 km/h 32.2 km/h 60% 0 mm
14:56 6 °C -0.7 °C 1025.6 hPa West 9.7 km/h 17.7 km/h 62% 0 mm
15:06 5.6 °C -0.7 °C 1025.6 hPa ESE 4.7 km/h 12.9 km/h 64% 0 mm
15:11 5.5 °C -0.6 °C 1026 hPa SSW 6.4 km/h 6.4 km/h 65% 0 mm
15:16 5.4 °C -0.4 °C 1026 hPa WSW 11.1 km/h 11.3 km/h 66% 0 mm
15:21 5.2 °C -1.1 °C 1026 hPa SW 1.4 km/h 11.3 km/h 64% 0 mm
15:26 5.2 °C -0.6 °C 1026.3 hPa WNW 19.5 km/h 24.1 km/h 66% 0 mm
15:31 4.9 °C -1.1 °C 1026 hPa ESE 9.7 km/h 22.5 km/h 65% 0 mm
15:36 4.8 °C -1.2 °C 1026 hPa West 4.7 km/h 19.3 km/h 65% 0 mm
15:41 5.1 °C -0.9 °C 1026 hPa WNW 9.7 km/h 17.7 km/h 65% 0 mm
15:51 5.2 °C -1.3 °C 1026 hPa NW 9.7 km/h 24.1 km/h 63% 0 mm
15:56 5.5 °C -1 °C 1026.3 hPa WSW 9.7 km/h 22.5 km/h 63% 0 mm
16:01 5.6 °C -1.1 °C 1026.3 hPa WSW 17.7 km/h 24.1 km/h 62% 0 mm
16:06 5.6 °C -1.1 °C 1026.3 hPa West 17.7 km/h 24.1 km/h 62% 0 mm
16:11 5.7 °C -1 °C 1026.6 hPa WNW 11.1 km/h 27.4 km/h 62% 0 mm
16:16 5.9 °C -0.4 °C 1027 hPa WNW 17.7 km/h 24.1 km/h 64% 0 mm
16:31 4.7 °C -2 °C 1027 hPa ESE 3.2 km/h 19.3 km/h 62% 0 mm
16:41 5.1 °C -2 °C 1027.3 hPa SSE 4.7 km/h 9.7 km/h 60% 0 mm
16:46 5.3 °C -1.6 °C 1027.3 hPa ESE 3.2 km/h 11.3 km/h 61% 0 mm
16:51 5.2 °C -2.2 °C 1027.3 hPa SW 3.2 km/h 22.5 km/h 59% 0 mm
16:56 5.2 °C -2.2 °C 1027.3 hPa WNW 4.7 km/h 12.9 km/h 59% 0 mm
17:01 4.2 °C -2.9 °C 1027.3 hPa West 7.9 km/h 24.1 km/h 60% 0 mm
17:06 3.6 °C -2.8 °C 1027.7 hPa Calm   12.9 km/h 63% 0 mm
17:11 3.4 °C -2.8 °C 1027.7 hPa SW 4.7 km/h 9.7 km/h 64% 0 mm
17:16 3.2 °C -2.7 °C 1027.7 hPa ESE 4.7 km/h 14.5 km/h 65% 0 mm
17:21 2.7 °C -3 °C 1028 hPa WSW 3.2 km/h 12.9 km/h 66% 0 mm
17:31 2.3 °C -3 °C 1028.3 hPa West 7.9 km/h 14.5 km/h 68% 0 mm
17:36 2.2 °C -2.9 °C 1028.3 hPa SW 3.2 km/h 11.3 km/h 69% 0 mm
17:41 2 °C -3.1 °C 1028.3 hPa SW 1.4 km/h 16.1 km/h 69% 0 mm
17:46 1.9 °C -3 °C 1028.3 hPa WNW 4.7 km/h 19.3 km/h 70% 0 mm
17:51 1.8 °C -3.3 °C 1028.7 hPa WNW 4.7 km/h 17.7 km/h 69% 0 mm
18:01 1.7 °C -2.8 °C 1028.7 hPa WNW 6.4 km/h 16.1 km/h 72% 0 mm
18:06 1.7 °C -3.2 °C 1028.7 hPa WNW 4.7 km/h 9.7 km/h 70% 0 mm
18:16 1.7 °C -3 °C 1029 hPa WSW 1.4 km/h 4.8 km/h 71% 0 mm
18:21 1.6 °C -3.3 °C 1029 hPa WSW 3.2 km/h 8 km/h 70% 0 mm
18:31 1.5 °C -3.4 °C 1029 hPa WSW 1.4 km/h 9.7 km/h 70% 0 mm
18:36 1.4 °C -3.3 °C 1029.3 hPa Calm   14.5 km/h 71% 0 mm
18:41 1.4 °C -3.1 °C 1029.3 hPa WSW 7.9 km/h 17.7 km/h 72% 0 mm
18:46 1.4 °C -3.3 °C 1029.3 hPa WSW 7.9 km/h 16.1 km/h 71% 0 mm
18:56 1.4 °C -3.3 °C 1029.3 hPa WNW 4.7 km/h 14.5 km/h 71% 0 mm
19:01 1.4 °C -3.5 °C 1029.3 hPa Calm   12.9 km/h 70% 0 mm
19:06 1.4 °C -3.5 °C 1029.7 hPa North 1.4 km/h 24.1 km/h 70% 0 mm
19:11 1.4 °C -3.5 °C 1029.7 hPa WSW 4.7 km/h 14.5 km/h 70% 0 mm
19:16 1.4 °C -3.7 °C 1029.7 hPa WSW 3.2 km/h 14.5 km/h 69% 0 mm
19:21 1.4 °C -3.7 °C 1029.7 hPa WSW 4.7 km/h 12.9 km/h 69% 0 mm
19:31 1.3 °C -4 °C 1029.7 hPa WSW 4.7 km/h 19.3 km/h 68% 0 mm
19:36 1.3 °C -3.8 °C 1029.7 hPa WNW 9.7 km/h 14.5 km/h 69% 0 mm
19:41 1.3 °C -4.2 °C 1030 hPa WSW 4.7 km/h 24.1 km/h 67% 0 mm
19:46 1.3 °C -4 °C 1030 hPa Calm   17.7 km/h 68% 0 mm
19:51 1.3 °C -4.2 °C 1030 hPa WSW 4.7 km/h 12.9 km/h 67% 0 mm
20:01 1.3 °C -4.2 °C 1030.4 hPa West 16.3 km/h 22.5 km/h 67% 0 mm
20:06 1.3 °C -4.4 °C 1030.4 hPa West 16.3 km/h 24.1 km/h 66% 0 mm
20:11 1.2 °C -4.4 °C 1030.7 hPa SE 9.7 km/h 17.7 km/h 66% 0 mm
20:21 1.2 °C -4.4 °C 1030.4 hPa ESE 7.9 km/h 16.1 km/h 66% 0 mm
20:26 1.2 °C -4.4 °C 1030.4 hPa SW 9.7 km/h 11.3 km/h 66% 0 mm
20:31 1.2 °C -4.2 °C 1030.7 hPa West 7.9 km/h 30.6 km/h 67% 0 mm
20:36 1.2 °C -4.4 °C 1030.7 hPa ESE 3.2 km/h 14.5 km/h 66% 0 mm
21:01 1.1 °C -4.1 °C 1031.4 hPa WNW 1.4 km/h 19.3 km/h 68% 0 mm
21:06 1.2 °C -4.2 °C 1031.4 hPa Calm   12.9 km/h 67% 0 mm
21:11 1.2 °C -4.2 °C 1031.7 hPa WSW 11.1 km/h 16.1 km/h 67% 0 mm
21:21 1.1 °C -4.3 °C 1031.7 hPa SE 9.7 km/h 9.7 km/h 67% 0 mm
21:31 0.9 °C -4.5 °C 1031.7 hPa SE 1.4 km/h 12.9 km/h 67% 0 mm
21:36 0.9 °C -4.5 °C 1032.1 hPa SSE 1.4 km/h 6.4 km/h 67% 0 mm
21:46 0.9 °C -4.5 °C 1032.1 hPa ESE 7.9 km/h 8 km/h 67% 0 mm
21:56 0.8 °C -4.8 °C 1032.4 hPa WSW 13 km/h 25.7 km/h 66% 0 mm
22:01 0.8 °C -4.6 °C 1032.4 hPa WSW 3.2 km/h 19.3 km/h 67% 0 mm
22:06 0.8 °C -4.6 °C 1032.1 hPa WSW 4.7 km/h 11.3 km/h 67% 0 mm
22:11 0.8 °C -4.4 °C 1032.4 hPa SSE 1.4 km/h 20.9 km/h 68% 0 mm
22:16 0.7 °C -4.7 °C 1032.4 hPa NE 4.7 km/h 11.3 km/h 67% 0 mm
22:21 0.7 °C -4.7 °C 1032.4 hPa SE 4.7 km/h 12.9 km/h 67% 0 mm
22:26 0.7 °C -4.5 °C 1032.4 hPa West 4.7 km/h 20.9 km/h 68% 0 mm
22:31 0.7 °C -4.5 °C 1032.4 hPa Calm   14.5 km/h 68% 0 mm
22:41 0.7 °C -4.7 °C 1032.4 hPa Calm   17.7 km/h 67% 0 mm
22:46 0.7 °C -4.7 °C 1032.7 hPa West 1.4 km/h 14.5 km/h 67% 0 mm
22:51 0.7 °C -4.7 °C 1032.7 hPa WNW 14.3 km/h 14.5 km/h 67% 0 mm
23:01 0.7 °C -4.7 °C 1032.7 hPa West 1.4 km/h 9.7 km/h 67% 0 mm
23:06 0.8 °C -4.8 °C 1032.7 hPa ESE 4.7 km/h 6.4 km/h 66% 0 mm
23:16 0.8 °C -4.8 °C 1032.7 hPa WNW 3.2 km/h 12.9 km/h 66% 0 mm
23:21 0.9 °C -4.7 °C 1032.7 hPa WNW 1.4 km/h 11.3 km/h 66% 0 mm
23:26 0.9 °C -4.9 °C 1032.7 hPa NE 9.7 km/h 17.7 km/h 65% 0 mm
23:32 0.9 °C -4.7 °C 1033.1 hPa ENE 7.9 km/h 8 km/h 66% 0 mm
23:37 0.9 °C -4.9 °C 1033.1 hPa West 1.4 km/h 8 km/h 65% 0 mm
23:46 0.9 °C -5.1 °C 1033.1 hPa NW 9.7 km/h 12.9 km/h 64% 0 mm
23:51 0.9 °C -5.1 °C 1032.7 hPa NW 7.9 km/h 20.9 km/h 64% 0 mm
23:56 0.9 °C -5.1 °C 1032.7 hPa WNW 13 km/h 13 km/h 64% 0 mm
WheeWeather.com
Compliments of Weather Underground - 2 mb